地図

経路データ

SID SEASON NUMBER BASIN SUBBASIN NAME ISO_TIME NATURE LAT LON WMO_WIND WMO_PRES WMO_AGENCY TRACK_TYPE DIST2LAND LANDFALL IFLAG USA_AGENCY USA_ATCF_ID USA_LAT USA_LON USA_RECORD USA_STATUS USA_WIND USA_PRES USA_SSHS USA_R34_NE USA_R34_SE USA_R34_SW USA_R34_NW USA_R50_NE USA_R50_SE USA_R50_SW USA_R50_NW USA_R64_NE USA_R64_SE USA_R64_SW USA_R64_NW USA_POCI USA_ROCI USA_RMW USA_EYE TOKYO_LAT TOKYO_LON TOKYO_GRADE TOKYO_WIND TOKYO_PRES TOKYO_R50_DIR TOKYO_R50_LONG TOKYO_R50_SHORT TOKYO_R30_DIR TOKYO_R30_LONG TOKYO_R30_SHORT TOKYO_LAND CMA_LAT CMA_LON CMA_CAT CMA_WIND CMA_PRES HKO_LAT HKO_LON HKO_CAT HKO_WIND HKO_PRES NEWDELHI_LAT NEWDELHI_LON NEWDELHI_GRADE NEWDELHI_WIND NEWDELHI_PRES NEWDELHI_CI NEWDELHI_DP NEWDELHI_POCI REUNION_LAT REUNION_LON REUNION_TYPE REUNION_WIND REUNION_PRES REUNION_TNUM REUNION_CI REUNION_RMW REUNION_R34_NE REUNION_R34_SE REUNION_R34_SW REUNION_R34_NW REUNION_R50_NE REUNION_R50_SE REUNION_R50_SW REUNION_R50_NW REUNION_R64_NE REUNION_R64_SE REUNION_R64_SW REUNION_R64_NW BOM_LAT BOM_LON BOM_TYPE BOM_WIND BOM_PRES BOM_TNUM BOM_CI BOM_RMW BOM_R34_NE BOM_R34_SE BOM_R34_SW BOM_R34_NW BOM_R50_NE BOM_R50_SE BOM_R50_SW BOM_R50_NW BOM_R64_NE BOM_R64_SE BOM_R64_SW BOM_R64_NW BOM_ROCI BOM_POCI BOM_EYE BOM_POS_METHOD BOM_PRES_METHOD NADI_LAT NADI_LON NADI_CAT NADI_WIND NADI_PRES WELLINGTON_LAT WELLINGTON_LON WELLINGTON_WIND WELLINGTON_PRES DS824_LAT DS824_LON DS824_STAGE DS824_WIND DS824_PRES TD9636_LAT TD9636_LON TD9636_STAGE TD9636_WIND TD9636_PRES TD9635_LAT TD9635_LON TD9635_WIND TD9635_PRES TD9635_ROCI NEUMANN_LAT NEUMANN_LON NEUMANN_CLASS NEUMANN_WIND NEUMANN_PRES MLC_LAT MLC_LON MLC_CLASS MLC_WIND MLC_PRES USA_GUST BOM_GUST BOM_GUST_PER REUNION_GUST REUNION_GUST_PER USA_SEAHGT USA_SEARAD_NE USA_SEARAD_SE USA_SEARAD_SW USA_SEARAD_NW STORM_SPEED STORM_DIR
1990181N10259 1990 45 EP MM NOT_NAMED 1990-06-29 18:00:00 TS 9.90000 -101.400 25 hurdat_epa main 778 734 O_____________ hurdat_epa EP061990 9.90000 -101.400 TD 25 -1 11 336
1990181N10259 1990 45 EP MM NOT_NAMED 1990-06-29 21:00:00 TS 10.4174 -101.635 main 734 702 P_____________ EP061990 10.4174 -101.635 TD 25 -1 11 327
1990181N10259 1990 45 EP MM NOT_NAMED 1990-06-30 00:00:00 TS 10.8000 -102.000 25 hurdat_epa main 705 699 O_____________ hurdat_epa EP061990 10.8000 -102.000 TD 25 -1 11 301
1990181N10259 1990 45 EP MM NOT_NAMED 1990-06-30 03:00:00 TS 10.9602 -102.570 main 710 710 P_____________ EP061990 10.9602 -102.570 TD 27 -1 12 280
1990181N10259 1990 45 EP MM NOT_NAMED 1990-06-30 06:00:00 TS 11.0000 -103.200 30 hurdat_epa main 740 740 O_____________ hurdat_epa EP061990 11.0000 -103.200 TD 30 -1 11 275
1990181N10259 1990 45 EP MM NOT_NAMED 1990-06-30 09:00:00 TS 11.0499 -103.730 main 758 752 P_____________ EP061990 11.0499 -103.730 TD 30 -1 10 276
1990181N10259 1990 45 EP MM NOT_NAMED 1990-06-30 12:00:00 TS 11.1000 -104.200 30 hurdat_epa main 770 770 O_____________ hurdat_epa EP061990 11.1000 -104.200 TD 30 -1 9 279
1990181N10259 1990 45 EP MM NOT_NAMED 1990-06-30 15:00:00 TS 11.1849 -104.630 main 780 780 P_____________ EP061990 11.1849 -104.630 TD 30 -1 8 284
1990181N10259 1990 45 EP MM NOT_NAMED 1990-06-30 18:00:00 TS 11.3000 -105.000 30 hurdat_epa main 792 786 O_____________ hurdat_epa EP061990 11.3000 -105.000 TD 30 -1 7 291
1990181N10259 1990 45 EP MM NOT_NAMED 1990-06-30 21:00:00 TS 11.4349 -105.308 main 793 779 P_____________ EP061990 11.4349 -105.308 TD 30 -1 7 297
1990181N10259 1990 45 EP MM NOT_NAMED 1990-07-01 00:00:00 TS 11.6000 -105.600 30 hurdat_epa main 782 771 O_____________ hurdat_epa EP061990 11.6000 -105.600 TD 30 -1 7 299
1990181N10259 1990 45 EP MM NOT_NAMED 1990-07-01 03:00:00 TS 11.7775 -105.935 main 771 762 P_____________ EP061990 11.7775 -105.935 TD 30 -1 8 300
1990181N10259 1990 45 EP MM NOT_NAMED 1990-07-01 06:00:00 TS 12.0000 -106.300 30 hurdat_epa main 766 754 O_____________ hurdat_epa EP061990 12.0000 -106.300 TD 30 -1 9 304
1990181N10259 1990 45 EP MM NOT_NAMED 1990-07-01 09:00:00 TS 12.2850 -106.700 main 754 744 P_____________ EP061990 12.2850 -106.700 TD 30 -1 10 308
1990181N10259 1990 45 EP MM NOT_NAMED 1990-07-01 12:00:00 TS 12.6000 -107.100 30 hurdat_epa main 745 734 O_____________ hurdat_epa EP061990 12.6000 -107.100 TD 30 -1 10 309
1990181N10259 1990 45 EP MM NOT_NAMED 1990-07-01 15:00:00 TS 12.8924 -107.458 main 740 728 P_____________ EP061990 12.8924 -107.458 TD 30 -1 9 311
1990181N10259 1990 45 EP MM NOT_NAMED 1990-07-01 18:00:00 TS 13.2000 -107.800 30 hurdat_epa main 733 728 O_____________ hurdat_epa EP061990 13.2000 -107.800 TD 30 -1 9 314
1990181N10259 1990 45 EP MM NOT_NAMED 1990-07-01 21:00:00 TS 13.5350 -108.150 main 733 712 P_____________ EP061990 13.5350 -108.150 TD 30 -1 10 316
1990181N10259 1990 45 EP MM NOT_NAMED 1990-07-02 00:00:00 TS 13.9000 -108.500 30 hurdat_epa main 712 700 O_____________ hurdat_epa EP061990 13.9000 -108.500 TD 30 -1 10 316
1990181N10259 1990 45 EP MM NOT_NAMED 1990-07-02 03:00:00 TS 14.2776 -108.880 main 700 687 P_____________ EP061990 14.2776 -108.880 TD 30 -1 11 320
1990181N10259 1990 45 EP MM NOT_NAMED 1990-07-02 06:00:00 TS 14.7000 -109.200 30 hurdat_epa main 687 677 O_____________ hurdat_epa EP061990 14.7000 -109.200 TD 30 -1 10 325
1990181N10259 1990 45 EP MM NOT_NAMED 1990-07-02 09:00:00 TS 15.1322 -109.492 main 677 631 P_____________ EP061990 15.1322 -109.492 TD 30 -1 10 344
1990181N10259 1990 45 EP MM NOT_NAMED 1990-07-02 12:00:00 TS 15.7000 -109.500 30 hurdat_epa main 631 514 O_____________ hurdat_epa EP061990 15.7000 -109.500 TD 30 -1 16 20
1990181N10259 1990 45 EP MM NOT_NAMED 1990-07-02 15:00:00 TS 16.6560 -108.903 main 507 407 P_____________ EP061990 16.6560 -108.903 TD 30 -1 21 34
1990181N10259 1990 45 EP MM NOT_NAMED 1990-07-02 18:00:00 TS 17.4000 -108.300 30 hurdat_epa main 407 407 O_____________ hurdat_epa EP061990 17.4000 -108.300 TD 30 -1 8 40
1990181N10259 1990 45 EP MM NOT_NAMED 1990-07-02 21:00:00 TS 17.2523 -108.375 main 423 423 P_____________ EP061990 17.2523 -108.375 TD 30 -1 5 215
1990181N10259 1990 45 EP MM NOT_NAMED 1990-07-03 00:00:00 TS 17.0000 -108.600 30 hurdat_epa main 461 417 O_____________ hurdat_epa EP061990 17.0000 -108.600 TD 30 -1 3 325
1990181N10259 1990 45 EP MM NOT_NAMED 1990-07-03 03:00:00 TS 17.4850 -108.538 main 417 377 P_____________ EP061990 17.4850 -108.538 TD 30 -1 10 11
1990181N10259 1990 45 EP MM NOT_NAMED 1990-07-03 06:00:00 TS 18.0000 -108.400 30 hurdat_epa main 377 368 O_____________ hurdat_epa EP061990 18.0000 -108.400 TD 30 -1 5 32
1990181N10259 1990 45 EP MM NOT_NAMED 1990-07-03 09:00:00 TS 17.9075 -108.262 main 374 365 P_____________ EP061990 17.9075 -108.262 TD 27 -1 3 136
1990181N10259 1990 45 EP MM NOT_NAMED 1990-07-03 12:00:00 TS 17.8000 -108.200 25 hurdat_epa main 372 359 O_____________ hurdat_epa EP061990 17.8000 -108.200 TD 25 -1 2 350
1990181N10259 1990 45 EP MM NOT_NAMED 1990-07-03 15:00:00 TS 18.1101 -108.300 main 362 346 P_____________ EP061990 18.1101 -108.300 TD 27 -1 10 342
1990181N10259 1990 45 EP MM NOT_NAMED 1990-07-03 18:00:00 TS 18.7000 -108.500 30 hurdat_epa main 346 O_____________ hurdat_epa EP061990 18.7000 -108.500 TD 30 -1 12 342

IBTrACS Databaseについて

本データベースは、米国NOAAが公開する1842年以降の世界の熱帯低気圧のベストトラックデータアーカイブInternational Best Track Archive for Climate Stewardship (IBTrACS)を、ウェブで閲覧しやすい形式に変換したものです。

最終更新日:2021-12-08